createdAt,value
2017-10-08T00:01:51.254Z,68.79
2017-10-08T00:04:18.401Z,68.80
2017-10-08T00:06:45.568Z,68.80
2017-10-08T00:09:12.703Z,68.79
2017-10-08T00:11:39.861Z,68.78
2017-10-08T00:14:07.015Z,68.78
2017-10-08T00:16:34.171Z,68.76
2017-10-08T00:19:01.336Z,68.76
2017-10-08T00:21:28.496Z,68.74
2017-10-08T00:23:55.649Z,68.74
2017-10-08T00:26:23.582Z,68.72
2017-10-08T00:28:50.748Z,68.68
2017-10-08T00:31:17.900Z,68.68
2017-10-08T00:33:45.039Z,68.69
2017-10-08T00:36:12.191Z,68.69
2017-10-08T00:38:39.360Z,68.68
2017-10-08T00:41:06.513Z,68.68
2017-10-08T00:43:33.671Z,68.68
2017-10-08T00:46:00.819Z,68.68
2017-10-08T00:48:27.974Z,68.68
2017-10-08T00:50:55.132Z,68.68
2017-10-08T00:53:22.295Z,68.68
2017-10-08T00:55:50.207Z,68.69
2017-10-08T00:58:17.350Z,68.68
2017-10-08T01:00:44.503Z,68.68
2017-10-08T01:03:11.668Z,68.68
2017-10-08T01:05:38.832Z,68.68
2017-10-08T01:08:05.981Z,68.67
2017-10-08T01:10:33.131Z,68.67
2017-10-08T01:13:00.265Z,68.69
2017-10-08T01:15:27.419Z,68.67
2017-10-08T01:17:54.557Z,68.71
2017-10-08T01:20:21.693Z,68.69
2017-10-08T01:22:48.834Z,68.67
2017-10-08T01:25:15.990Z,68.68
2017-10-08T01:27:43.172Z,68.68
2017-10-08T01:30:10.310Z,68.67
2017-10-08T01:32:37.627Z,68.68
2017-10-08T01:35:05.530Z,68.70
2017-10-08T01:37:32.670Z,68.71
2017-10-08T01:39:59.806Z,68.70
2017-10-08T01:42:26.960Z,68.70
2017-10-08T01:44:54.093Z,68.69
2017-10-08T01:47:21.247Z,68.69
2017-10-08T01:49:48.386Z,68.69
2017-10-08T01:52:15.531Z,68.69
2017-10-08T01:54:42.665Z,68.69
2017-10-08T01:57:09.820Z,68.70
2017-10-08T01:59:36.974Z,68.70
2017-10-08T02:02:04.118Z,68.70
2017-10-08T02:04:31.260Z,68.71
2017-10-08T02:06:59.204Z,68.71
2017-10-08T02:09:26.349Z,68.73
2017-10-08T02:11:53.504Z,68.74
2017-10-08T02:14:20.688Z,68.72
2017-10-08T02:16:47.825Z,68.72
2017-10-08T02:19:14.979Z,68.72
2017-10-08T02:21:42.131Z,68.71
2017-10-08T02:24:09.279Z,68.71
2017-10-08T02:26:36.427Z,68.71
2017-10-08T02:29:03.580Z,68.72
2017-10-08T02:31:30.736Z,68.73
2017-10-08T02:33:57.888Z,68.74
2017-10-08T02:36:25.048Z,68.74
2017-10-08T02:38:52.975Z,68.74
2017-10-08T02:41:20.283Z,68.75
2017-10-08T02:43:48.185Z,68.75
2017-10-08T02:46:15.318Z,68.74
2017-10-08T02:48:42.462Z,68.74
2017-10-08T02:51:09.606Z,68.74
2017-10-08T02:53:36.767Z,68.74
2017-10-08T02:56:04.124Z,68.74
2017-10-08T02:58:31.284Z,68.74
2017-10-08T03:00:58.439Z,68.74
2017-10-08T03:03:25.592Z,68.74
2017-10-08T03:05:52.762Z,68.74
2017-10-08T03:08:19.898Z,68.75
2017-10-08T03:10:47.051Z,68.75
2017-10-08T03:13:14.199Z,68.76
2017-10-08T03:15:41.351Z,68.76
2017-10-08T03:18:08.494Z,68.76
2017-10-08T03:20:35.669Z,68.77
2017-10-08T03:23:03.588Z,68.79
2017-10-08T03:25:30.725Z,68.77
2017-10-08T03:27:57.866Z,68.77
2017-10-08T03:30:25.131Z,68.77
2017-10-08T03:32:52.281Z,68.76
2017-10-08T03:35:19.447Z,68.76
2017-10-08T03:37:46.592Z,68.75
2017-10-08T03:40:13.753Z,68.71
2017-10-08T03:42:40.892Z,68.67
2017-10-08T03:45:08.073Z,68.63
2017-10-08T03:47:35.218Z,68.61
2017-10-08T03:50:02.367Z,68.59
2017-10-08T03:52:29.507Z,68.56
2017-10-08T03:54:56.664Z,68.53
2017-10-08T03:57:24.569Z,68.52
2017-10-08T03:59:51.848Z,68.51
2017-10-08T04:02:19.764Z,68.49
2017-10-08T04:04:47.072Z,68.48
2017-10-08T04:07:14.227Z,68.44
2017-10-08T04:09:41.362Z,68.41
2017-10-08T04:12:09.292Z,68.40
2017-10-08T04:14:36.441Z,68.37
2017-10-08T04:17:03.582Z,68.34
2017-10-08T04:19:30.760Z,68.32
2017-10-08T04:21:57.901Z,68.30
2017-10-08T04:24:25.036Z,68.31
2017-10-08T04:26:52.190Z,68.28
2017-10-08T04:29:19.325Z,68.26
2017-10-08T04:31:46.457Z,68.25
2017-10-08T04:34:13.613Z,68.23
2017-10-08T04:36:40.757Z,68.21
2017-10-08T04:39:07.893Z,68.20
2017-10-08T04:41:35.053Z,68.19
2017-10-08T04:44:02.216Z,68.20
2017-10-08T04:46:29.353Z,68.20
2017-10-08T04:48:56.486Z,68.21
2017-10-08T04:51:23.640Z,68.23
2017-10-08T04:53:50.781Z,68.24
2017-10-08T04:56:17.931Z,68.26
2017-10-08T04:58:45.081Z,68.28
2017-10-08T05:01:12.235Z,68.31
2017-10-08T05:03:39.407Z,68.33
2017-10-08T05:06:06.541Z,68.35
2017-10-08T05:08:33.705Z,68.36
2017-10-08T05:11:00.853Z,68.38
2017-10-08T05:13:27.990Z,68.40
2017-10-08T05:15:55.146Z,68.42
2017-10-08T05:18:22.289Z,68.45
2017-10-08T05:20:49.437Z,68.46
2017-10-08T05:23:16.587Z,68.48
2017-10-08T05:25:43.723Z,68.50
2017-10-08T05:28:10.884Z,68.51
2017-10-08T05:30:38.035Z,68.52
2017-10-08T05:33:05.178Z,68.53
2017-10-08T05:35:32.308Z,68.54
2017-10-08T05:37:59.476Z,68.55
2017-10-08T05:40:26.636Z,68.55
2017-10-08T05:42:53.789Z,68.56
2017-10-08T05:45:20.948Z,68.56
2017-10-08T05:47:48.115Z,68.56
2017-10-08T05:50:15.269Z,68.57
2017-10-08T05:52:42.417Z,68.56
2017-10-08T05:55:09.564Z,68.56
2017-10-08T05:57:36.715Z,68.55
2017-10-08T06:00:03.878Z,68.55
2017-10-08T06:02:31.032Z,68.55
2017-10-08T06:04:58.189Z,68.54
2017-10-08T06:07:25.325Z,68.53
2017-10-08T06:09:52.473Z,68.52
2017-10-08T06:12:19.626Z,68.52
2017-10-08T06:14:46.786Z,68.52
2017-10-08T06:17:13.933Z,68.50
2017-10-08T06:19:41.073Z,68.50
2017-10-08T06:22:08.218Z,68.49
2017-10-08T06:24:35.372Z,68.49
2017-10-08T06:27:02.511Z,68.49
2017-10-08T06:29:29.674Z,68.49
2017-10-08T06:31:56.828Z,68.49
2017-10-08T06:34:23.965Z,68.49
2017-10-08T06:36:51.108Z,68.46
2017-10-08T06:39:18.241Z,68.49
2017-10-08T06:41:45.423Z,68.50
2017-10-08T06:44:12.572Z,68.50
2017-10-08T06:46:39.728Z,68.50
2017-10-08T06:49:06.886Z,68.51
2017-10-08T06:51:34.023Z,68.51
2017-10-08T06:54:01.184Z,68.52
2017-10-08T06:56:28.340Z,68.52
2017-10-08T06:58:55.497Z,68.52
2017-10-08T07:01:22.656Z,68.53
2017-10-08T07:03:49.793Z,68.53
2017-10-08T07:06:16.929Z,68.53
2017-10-08T07:08:44.087Z,68.53
2017-10-08T07:11:11.251Z,68.54
2017-10-08T07:13:38.419Z,68.54
2017-10-08T07:16:05.562Z,68.54
2017-10-08T07:18:32.705Z,68.54
2017-10-08T07:20:59.838Z,68.55
2017-10-08T07:23:27.000Z,68.55
2017-10-08T07:25:54.147Z,68.54
2017-10-08T07:28:21.303Z,68.55
2017-10-08T07:30:48.455Z,68.56
2017-10-08T07:33:15.597Z,68.55
2017-10-08T07:35:42.909Z,68.54
2017-10-08T07:38:10.045Z,68.55
2017-10-08T07:40:37.193Z,68.55
2017-10-08T07:43:04.329Z,68.54
2017-10-08T07:45:32.230Z,68.55
2017-10-08T07:47:59.381Z,68.54
2017-10-08T07:50:26.535Z,68.54
2017-10-08T07:52:53.688Z,68.54
2017-10-08T07:55:20.830Z,68.55
2017-10-08T07:57:47.984Z,68.56
2017-10-08T08:00:15.148Z,68.56
2017-10-08T08:02:42.286Z,68.57
2017-10-08T08:05:09.445Z,68.58
2017-10-08T08:07:36.582Z,68.59
2017-10-08T08:10:03.726Z,68.61
2017-10-08T08:12:30.888Z,68.60
2017-10-08T08:14:58.025Z,68.60
2017-10-08T08:17:25.170Z,68.60
2017-10-08T08:19:52.323Z,68.59
2017-10-08T08:22:19.475Z,68.58
2017-10-08T08:24:46.623Z,68.69
2017-10-08T08:27:13.762Z,68.86
2017-10-08T08:29:40.898Z,68.89
2017-10-08T08:32:08.061Z,68.87
2017-10-08T08:34:35.224Z,68.85
2017-10-08T08:37:02.379Z,68.82
2017-10-08T08:39:29.519Z,68.82
2017-10-08T08:41:56.668Z,68.78
2017-10-08T08:44:23.806Z,68.71
2017-10-08T08:46:50.958Z,68.85
2017-10-08T08:49:18.110Z,68.85
2017-10-08T08:51:45.270Z,68.85
2017-10-08T08:54:12.408Z,68.87
2017-10-08T08:56:39.547Z,68.87
2017-10-08T08:59:06.713Z,68.87
2017-10-08T09:01:33.854Z,68.85
2017-10-08T09:04:01.030Z,68.84
2017-10-08T09:06:28.360Z,68.82
2017-10-08T09:08:56.296Z,68.82
2017-10-08T09:11:23.500Z,68.81
2017-10-08T09:13:50.652Z,68.81
2017-10-08T09:16:17.812Z,68.80
2017-10-08T09:18:44.953Z,68.79
2017-10-08T09:21:12.113Z,68.77
2017-10-08T09:23:39.267Z,68.76
2017-10-08T09:26:06.402Z,68.73
2017-10-08T09:28:33.538Z,68.71
2017-10-08T09:31:00.694Z,68.79
2017-10-08T09:33:27.842Z,68.75
2017-10-08T09:35:55.012Z,68.83
2017-10-08T09:38:22.237Z,68.84
2017-10-08T09:40:49.404Z,68.84
2017-10-08T09:43:16.547Z,68.92
2017-10-08T09:45:43.704Z,68.88
2017-10-08T09:48:10.856Z,68.96
2017-10-08T09:50:37.995Z,69.05
2017-10-08T09:53:05.560Z,69.21
2017-10-08T09:55:32.740Z,69.27
2017-10-08T09:57:59.897Z,69.27
2017-10-08T10:00:27.041Z,69.18
2017-10-08T10:02:54.205Z,69.17
2017-10-08T10:05:21.364Z,69.23
2017-10-08T10:07:48.669Z,69.24
2017-10-08T10:10:15.810Z,69.25
2017-10-08T10:12:42.949Z,69.25
2017-10-08T10:15:10.141Z,69.25
2017-10-08T10:17:38.313Z,69.24
2017-10-08T10:20:05.488Z,69.25
2017-10-08T10:22:32.650Z,69.25
2017-10-08T10:24:59.798Z,69.24
2017-10-08T10:27:26.956Z,69.21
2017-10-08T10:29:59.522Z,69.18
2017-10-08T10:32:27.451Z,69.14
2017-10-08T10:34:54.597Z,69.11
2017-10-08T10:37:21.734Z,69.08
2017-10-08T10:39:48.930Z,69.07
2017-10-08T10:42:16.104Z,69.05
2017-10-08T10:44:44.038Z,69.11
2017-10-08T10:47:11.193Z,69.14
2017-10-08T10:49:38.348Z,69.08
2017-10-08T10:52:05.499Z,69.15
2017-10-08T10:54:32.646Z,69.20
2017-10-08T10:56:59.786Z,69.20
2017-10-08T10:59:26.921Z,69.10
2017-10-08T11:01:54.078Z,69.14
2017-10-08T11:04:21.216Z,69.11
2017-10-08T11:06:48.361Z,69.16
2017-10-08T11:09:15.503Z,69.14
2017-10-08T11:11:42.647Z,69.22
2017-10-08T11:14:09.793Z,69.33
2017-10-08T11:16:36.984Z,69.40
2017-10-08T11:19:04.233Z,69.41
2017-10-08T11:21:31.392Z,69.49
2017-10-08T11:23:58.615Z,69.47
2017-10-08T11:26:25.755Z,69.52
2017-10-08T11:28:52.943Z,69.67
2017-10-08T11:31:20.101Z,69.73
2017-10-08T11:33:47.238Z,69.77
2017-10-08T11:36:14.393Z,69.77
2017-10-08T11:38:41.541Z,69.78
2017-10-08T11:41:08.708Z,69.77
2017-10-08T11:43:35.845Z,69.75
2017-10-08T11:46:02.986Z,69.73
2017-10-08T11:48:30.157Z,69.71
2017-10-08T11:50:57.569Z,69.67
2017-10-08T11:53:24.788Z,69.67
2017-10-08T11:55:51.940Z,69.66
2017-10-08T11:58:19.093Z,69.63
2017-10-08T12:00:46.241Z,69.64
2017-10-08T12:03:16.065Z,69.63
2017-10-08T12:05:43.280Z,69.71
2017-10-08T12:08:10.700Z,69.71
2017-10-08T12:10:37.861Z,69.69
2017-10-08T12:13:05.297Z,69.67
2017-10-08T12:15:32.445Z,69.67
2017-10-08T12:17:59.606Z,69.64
2017-10-08T12:20:26.768Z,69.59
2017-10-08T12:22:53.924Z,69.55
2017-10-08T12:25:21.065Z,69.51
2017-10-08T12:27:48.227Z,69.53
2017-10-08T12:30:15.398Z,69.53
2017-10-08T12:32:42.560Z,69.53
2017-10-08T12:35:09.712Z,69.49
2017-10-08T12:37:37.628Z,69.46
2017-10-08T12:40:04.771Z,69.42
2017-10-08T12:42:31.926Z,69.40
2017-10-08T12:44:59.080Z,69.39
2017-10-08T12:47:26.240Z,69.38
2017-10-08T12:49:53.413Z,69.36
2017-10-08T12:52:20.568Z,69.33
2017-10-08T12:54:47.727Z,69.32
2017-10-08T12:57:14.868Z,69.31
2017-10-08T12:59:42.024Z,69.30
2017-10-08T13:02:09.501Z,69.28
2017-10-08T13:04:37.409Z,69.28
2017-10-08T13:07:04.569Z,69.26
2017-10-08T13:09:31.705Z,69.27
2017-10-08T13:11:58.874Z,69.27
2017-10-08T13:14:26.017Z,69.25
2017-10-08T13:16:53.156Z,69.24
2017-10-08T13:19:20.316Z,69.24
2017-10-08T13:21:47.475Z,69.24
2017-10-08T13:24:14.623Z,69.24
2017-10-08T13:26:41.874Z,69.23
2017-10-08T13:29:09.039Z,69.22
2017-10-08T13:31:36.177Z,69.23
2017-10-08T13:34:03.342Z,69.22
2017-10-08T13:36:30.552Z,69.23
2017-10-08T13:38:57.735Z,69.22
2017-10-08T13:41:24.878Z,69.20
2017-10-08T13:43:52.025Z,69.20
2017-10-08T13:46:19.187Z,69.20
2017-10-08T13:48:46.339Z,69.19
2017-10-08T13:51:13.499Z,69.19
2017-10-08T13:53:40.667Z,69.19
2017-10-08T13:56:07.810Z,69.20
2017-10-08T13:58:34.959Z,69.17
2017-10-08T14:01:02.134Z,69.16
2017-10-08T14:03:29.278Z,69.16
2017-10-08T14:05:56.443Z,69.16
2017-10-08T14:08:23.617Z,69.15
2017-10-08T14:10:50.761Z,69.16
2017-10-08T14:13:17.919Z,69.14
2017-10-08T14:15:45.065Z,69.14
2017-10-08T14:18:12.214Z,69.14
2017-10-08T14:20:39.353Z,69.13
2017-10-08T14:23:06.692Z,69.13
2017-10-08T14:25:34.610Z,69.13
2017-10-08T14:28:01.767Z,69.12
2017-10-08T14:30:29.421Z,69.12
2017-10-08T14:32:56.570Z,69.11
2017-10-08T14:35:23.744Z,69.10
2017-10-08T14:37:50.915Z,69.10
2017-10-08T14:40:18.094Z,69.10
2017-10-08T14:42:45.241Z,69.07
2017-10-08T14:45:12.408Z,69.06
2017-10-08T14:47:39.576Z,69.06
2017-10-08T14:50:06.736Z,69.05
2017-10-08T14:52:33.900Z,69.04
2017-10-08T14:55:01.060Z,69.03
2017-10-08T14:57:28.206Z,69.03
2017-10-08T14:59:55.384Z,69.03
2017-10-08T15:02:22.532Z,69.03
2017-10-08T15:04:50.601Z,69.04
2017-10-08T15:07:17.789Z,69.04
2017-10-08T15:09:44.980Z,68.99
2017-10-08T15:12:12.140Z,69.03
2017-10-08T15:14:40.075Z,69.04
2017-10-08T15:17:08.022Z,69.04
2017-10-08T15:19:35.216Z,69.04
2017-10-08T15:22:02.817Z,69.04
2017-10-08T15:24:29.995Z,69.04
2017-10-08T15:26:57.158Z,69.04
2017-10-08T15:29:24.305Z,69.03
2017-10-08T15:31:51.473Z,69.04
2017-10-08T15:34:19.396Z,69.04
2017-10-08T15:36:46.629Z,69.04
2017-10-08T15:39:13.893Z,69.04
2017-10-08T15:41:41.063Z,69.04
2017-10-08T15:44:08.201Z,69.04
2017-10-08T15:46:35.353Z,69.04
2017-10-08T15:49:02.498Z,69.04
2017-10-08T15:51:29.674Z,69.04
2017-10-08T15:53:56.833Z,69.04
2017-10-08T15:56:23.986Z,69.05
2017-10-08T15:58:51.159Z,69.05
2017-10-08T16:01:18.344Z,69.05
2017-10-08T16:03:45.700Z,69.08
2017-10-08T16:06:12.852Z,69.07
2017-10-08T16:08:40.012Z,69.08
2017-10-08T16:11:07.161Z,69.09
2017-10-08T16:13:34.309Z,69.09
2017-10-08T16:16:02.021Z,69.08
2017-10-08T16:18:30.135Z,69.07
2017-10-08T16:20:58.277Z,69.06
2017-10-08T16:23:25.496Z,69.06
2017-10-08T16:25:53.202Z,69.07
2017-10-08T16:28:20.508Z,68.99
2017-10-08T16:30:48.549Z,68.98
2017-10-08T16:33:15.698Z,69.03
2017-10-08T16:35:42.845Z,69.08
2017-10-08T16:38:10.007Z,69.08
2017-10-08T16:40:37.447Z,69.07
2017-10-08T16:43:04.626Z,69.02
2017-10-08T16:45:32.275Z,69.03
2017-10-08T16:48:00.845Z,69.04
2017-10-08T16:50:28.048Z,69.11
2017-10-08T16:52:55.854Z,69.17
2017-10-08T16:55:24.201Z,69.24
2017-10-08T16:57:52.219Z,69.33
2017-10-08T17:00:19.396Z,69.44
2017-10-08T17:02:47.675Z,69.53
2017-10-08T17:05:14.883Z,69.56
2017-10-08T17:07:42.534Z,69.51
2017-10-08T17:10:10.433Z,69.44
2017-10-08T17:12:38.640Z,69.36
2017-10-08T17:15:05.854Z,69.29
2017-10-08T17:17:34.058Z,69.28
2017-10-08T17:20:02.023Z,69.32
2017-10-08T17:22:30.514Z,69.35
2017-10-08T17:24:58.031Z,69.38
2017-10-08T17:27:25.701Z,69.33
2017-10-08T17:29:54.064Z,69.26
2017-10-08T17:32:21.309Z,69.24
2017-10-08T17:34:48.474Z,69.19
2017-10-08T17:37:15.633Z,69.20
2017-10-08T17:39:42.818Z,69.22
2017-10-08T17:42:10.225Z,69.23
2017-10-08T17:44:37.570Z,69.27
2017-10-08T17:47:04.722Z,69.24
2017-10-08T17:49:32.849Z,69.73
2017-10-08T17:52:00.580Z,69.72
2017-10-08T17:54:27.764Z,69.80
2017-10-08T17:56:55.565Z,69.68
2017-10-08T17:59:22.823Z,69.53
2017-10-08T18:01:50.017Z,69.43
2017-10-08T18:04:18.231Z,69.45
2017-10-08T18:06:46.974Z,69.46
2017-10-08T18:09:14.318Z,69.49
2017-10-08T18:11:42.461Z,69.48
2017-10-08T18:14:10.680Z,69.45
2017-10-08T18:16:39.115Z,69.42
2017-10-08T18:19:07.341Z,69.46
2017-10-08T18:21:36.412Z,69.47
2017-10-08T18:24:06.327Z,69.42
2017-10-08T18:26:34.197Z,69.43
2017-10-08T18:29:01.620Z,69.44
2017-10-08T18:31:30.064Z,69.41
2017-10-08T18:33:58.968Z,69.54
2017-10-08T18:36:27.911Z,69.47
2017-10-08T18:38:57.231Z,69.45
2017-10-08T18:41:26.399Z,69.43
2017-10-08T18:43:55.089Z,69.44
2017-10-08T18:46:22.475Z,69.36
2017-10-08T18:48:51.685Z,69.38
2017-10-08T18:51:20.222Z,69.43
2017-10-08T18:53:48.473Z,69.38
2017-10-08T18:56:15.690Z,69.38
2017-10-08T18:58:44.676Z,69.34
2017-10-08T19:01:12.077Z,69.42
2017-10-08T19:03:41.526Z,69.62
2017-10-08T19:06:10.595Z,69.38
2017-10-08T19:08:40.306Z,69.41
2017-10-08T19:11:08.862Z,69.32
2017-10-08T19:13:37.956Z,69.28
2017-10-08T19:16:05.936Z,69.28
2017-10-08T19:18:34.255Z,69.32
2017-10-08T19:21:01.623Z,69.26
2017-10-08T19:23:30.126Z,69.25
2017-10-08T19:25:58.624Z,69.21
2017-10-08T19:28:27.256Z,69.20
2017-10-08T19:30:55.810Z,69.14
2017-10-08T19:33:24.068Z,69.14
2017-10-08T19:35:51.746Z,69.15
2017-10-08T19:38:19.213Z,69.10
2017-10-08T19:40:47.101Z,69.18
2017-10-08T19:43:14.560Z,69.30
2017-10-08T19:45:43.050Z,69.19
2017-10-08T19:48:11.244Z,69.22
2017-10-08T19:50:39.651Z,69.29
2017-10-08T19:53:07.565Z,69.08
2017-10-08T19:55:35.954Z,69.14
2017-10-08T19:58:03.966Z,69.32
2017-10-08T20:00:32.479Z,69.31
2017-10-08T20:02:59.678Z,69.55
2017-10-08T20:05:26.897Z,69.49
2017-10-08T20:07:54.055Z,69.44
2017-10-08T20:10:21.290Z,69.36
2017-10-08T20:12:48.494Z,69.05
2017-10-08T20:15:15.909Z,68.90
2017-10-08T20:17:43.069Z,68.80
2017-10-08T20:20:10.381Z,68.72
2017-10-08T20:22:38.326Z,68.65
2017-10-08T20:25:05.534Z,68.63
2017-10-08T20:27:32.686Z,68.56
2017-10-08T20:29:59.832Z,68.56
2017-10-08T20:32:26.990Z,68.57
2017-10-08T20:34:54.491Z,68.72
2017-10-08T20:37:21.635Z,68.69
2017-10-08T20:39:48.808Z,68.85
2017-10-08T20:42:16.734Z,68.83
2017-10-08T20:44:43.893Z,68.82
2017-10-08T20:47:11.042Z,68.83
2017-10-08T20:49:38.190Z,68.83
2017-10-08T20:52:05.352Z,68.85
2017-10-08T20:54:32.533Z,68.88
2017-10-08T20:56:59.682Z,68.90
2017-10-08T20:59:27.555Z,68.90
2017-10-08T21:01:55.463Z,68.90
2017-10-08T21:04:22.621Z,68.90
2017-10-08T21:06:49.761Z,68.90
2017-10-08T21:09:16.906Z,68.90
2017-10-08T21:11:44.062Z,68.93
2017-10-08T21:14:11.251Z,68.92
2017-10-08T21:16:38.412Z,68.93
2017-10-08T21:19:06.652Z,68.95
2017-10-08T21:21:33.801Z,68.94
2017-10-08T21:24:00.937Z,68.93
2017-10-08T21:26:28.523Z,68.94
2017-10-08T21:28:55.658Z,68.94
2017-10-08T21:31:22.833Z,68.91
2017-10-08T21:33:49.974Z,68.93
2017-10-08T21:36:17.128Z,68.92
2017-10-08T21:38:44.284Z,68.91
2017-10-08T21:41:11.553Z,68.89
2017-10-08T21:43:39.468Z,68.87
2017-10-08T21:46:06.638Z,68.85
2017-10-08T21:48:33.807Z,68.84
2017-10-08T21:51:00.968Z,68.84
2017-10-08T21:53:28.145Z,68.85
2017-10-08T21:55:55.299Z,68.84
2017-10-08T21:58:22.446Z,68.84
2017-10-08T22:00:50.168Z,68.85
2017-10-08T22:03:17.329Z,68.83
2017-10-08T22:05:45.709Z,68.80
2017-10-08T22:08:12.919Z,68.79
2017-10-08T22:10:40.075Z,68.79
2017-10-08T22:13:07.227Z,68.80
2017-10-08T22:15:34.368Z,68.83
2017-10-08T22:18:01.502Z,68.82
2017-10-08T22:20:28.646Z,68.81
2017-10-08T22:22:55.786Z,68.78
2017-10-08T22:25:22.922Z,68.81
2017-10-08T22:27:50.816Z,68.83
2017-10-08T22:30:18.018Z,68.80
2017-10-08T22:32:45.182Z,68.77
2017-10-08T22:35:12.321Z,68.76
2017-10-08T22:37:39.474Z,68.75
2017-10-08T22:40:06.628Z,68.71
2017-10-08T22:42:33.779Z,68.71
2017-10-08T22:45:00.939Z,68.73
2017-10-08T22:47:28.085Z,68.73
2017-10-08T22:49:55.487Z,68.68
2017-10-08T22:52:22.629Z,68.71
2017-10-08T22:54:49.777Z,68.66
2017-10-08T22:57:16.935Z,68.66
2017-10-08T22:59:44.081Z,68.62
2017-10-08T23:02:11.240Z,68.60
2017-10-08T23:04:38.392Z,68.62
2017-10-08T23:07:05.544Z,68.65
2017-10-08T23:09:32.698Z,68.65
2017-10-08T23:11:59.847Z,68.64
2017-10-08T23:14:27.005Z,68.65
2017-10-08T23:16:54.137Z,68.65
2017-10-08T23:19:21.294Z,68.65
2017-10-08T23:21:48.430Z,68.66
2017-10-08T23:24:15.570Z,68.66
2017-10-08T23:26:42.736Z,68.70
2017-10-08T23:29:09.883Z,68.71
2017-10-08T23:31:37.025Z,68.72
2017-10-08T23:34:04.175Z,68.72
2017-10-08T23:36:31.495Z,68.73
2017-10-08T23:38:58.634Z,68.74
2017-10-08T23:41:25.793Z,68.74
2017-10-08T23:43:52.933Z,68.75
2017-10-08T23:46:20.082Z,68.76
2017-10-08T23:48:47.253Z,68.76
2017-10-08T23:51:14.408Z,68.75
2017-10-08T23:53:41.560Z,68.63
2017-10-08T23:56:08.705Z,68.68
2017-10-08T23:58:35.850Z,68.71
